createdAt,value
2016-10-16T00:00:33.849Z,99.99
2016-10-16T00:01:33.819Z,99.99
2016-10-16T00:02:33.805Z,99.99
2016-10-16T00:03:33.789Z,99.99
2016-10-16T00:04:33.774Z,99.99
2016-10-16T00:05:33.780Z,99.99
2016-10-16T00:06:33.752Z,99.99
2016-10-16T00:07:33.733Z,99.99
2016-10-16T00:08:33.717Z,99.99
2016-10-16T00:09:33.710Z,99.99
2016-10-16T00:10:33.711Z,99.99
2016-10-16T00:11:33.687Z,99.99
2016-10-16T00:12:33.658Z,99.99
2016-10-16T00:13:33.642Z,99.99
2016-10-16T00:14:33.648Z,99.99
2016-10-16T00:15:33.627Z,99.99
2016-10-16T00:16:33.619Z,99.99
2016-10-16T00:17:33.591Z,99.99
2016-10-16T00:18:33.596Z,99.99
2016-10-16T00:19:33.576Z,99.99
2016-10-16T00:20:33.869Z,99.99
2016-10-16T00:21:33.540Z,99.99
2016-10-16T00:22:33.531Z,99.99
2016-10-16T00:23:33.503Z,99.99
2016-10-16T00:24:33.482Z,99.99
2016-10-16T00:25:33.478Z,99.99
2016-10-16T00:26:33.472Z,99.99
2016-10-16T00:27:33.438Z,99.99
2016-10-16T00:28:33.442Z,99.99
2016-10-16T00:29:33.421Z,99.99
2016-10-16T00:30:33.393Z,99.99
2016-10-16T00:31:33.377Z,99.99
2016-10-16T00:32:33.367Z,99.99
2016-10-16T00:33:33.367Z,99.99
2016-10-16T00:34:33.338Z,99.99
2016-10-16T00:35:33.324Z,99.99
2016-10-16T00:36:33.310Z,99.99
2016-10-16T00:37:33.302Z,99.99
2016-10-16T00:38:33.295Z,99.99
2016-10-16T00:39:33.257Z,99.99
2016-10-16T00:40:33.241Z,99.99
2016-10-16T00:41:33.250Z,99.99
2016-10-16T00:42:33.235Z,99.99
2016-10-16T00:43:33.205Z,99.99
2016-10-16T00:44:33.183Z,99.99
2016-10-16T00:45:33.183Z,99.99
2016-10-16T00:46:33.159Z,99.99
2016-10-16T00:47:33.140Z,99.99
2016-10-16T00:48:33.131Z,99.99
2016-10-16T00:49:33.110Z,99.99
2016-10-16T00:50:33.095Z,99.99
2016-10-16T00:51:33.181Z,99.99
2016-10-16T00:52:33.063Z,99.99
2016-10-16T00:53:33.073Z,99.99
2016-10-16T00:54:33.034Z,99.99
2016-10-16T00:55:33.042Z,99.99
2016-10-16T00:56:33.020Z,99.99
2016-10-16T00:57:33.004Z,99.99
2016-10-16T00:58:32.997Z,99.99
2016-10-16T00:59:32.984Z,99.99
2016-10-16T01:00:32.953Z,99.99
2016-10-16T01:01:32.953Z,99.99
2016-10-16T01:02:32.925Z,99.99
2016-10-16T01:03:32.901Z,99.99
2016-10-16T01:04:32.900Z,99.99
2016-10-16T01:05:32.870Z,99.99
2016-10-16T01:06:32.858Z,99.99
2016-10-16T01:07:32.864Z,99.99
2016-10-16T01:08:32.836Z,99.99
2016-10-16T01:09:32.821Z,99.99
2016-10-16T01:10:32.807Z,99.99
2016-10-16T01:11:32.791Z,99.99
2016-10-16T01:12:32.792Z,99.99
2016-10-16T01:13:32.762Z,99.99
2016-10-16T01:14:32.753Z,99.99
2016-10-16T01:15:32.740Z,99.99
2016-10-16T01:16:32.710Z,99.99
2016-10-16T01:17:32.703Z,99.99
2016-10-16T01:18:32.692Z,99.99
2016-10-16T01:19:32.667Z,99.99
2016-10-16T01:20:32.650Z,99.99
2016-10-16T01:21:32.649Z,99.99
2016-10-16T01:22:32.623Z,99.99
2016-10-16T01:23:32.625Z,99.99
2016-10-16T01:24:32.597Z,99.99
2016-10-16T01:25:32.582Z,99.99
2016-10-16T01:26:32.575Z,99.99
2016-10-16T01:27:32.567Z,99.99
2016-10-16T01:28:32.553Z,99.99
2016-10-16T01:29:32.537Z,99.99
2016-10-16T01:30:32.515Z,99.99
2016-10-16T01:31:32.487Z,99.99
2016-10-16T01:32:32.469Z,99.99
2016-10-16T01:33:32.471Z,99.99
2016-10-16T01:34:32.456Z,99.99
2016-10-16T01:35:32.426Z,99.99
2016-10-16T01:36:32.414Z,99.99
2016-10-16T01:37:32.404Z,99.99
2016-10-16T01:38:32.388Z,99.99
2016-10-16T01:39:32.375Z,99.99
2016-10-16T01:40:32.374Z,99.99
2016-10-16T01:41:32.337Z,99.99
2016-10-16T01:42:32.343Z,99.99
2016-10-16T01:43:32.329Z,99.99
2016-10-16T01:44:32.293Z,99.99
2016-10-16T01:45:32.277Z,99.99
2016-10-16T01:46:32.272Z,99.99
2016-10-16T01:47:32.248Z,99.99
2016-10-16T01:48:32.253Z,99.99
2016-10-16T01:49:32.232Z,99.99
2016-10-16T01:50:32.210Z,99.99
2016-10-16T01:51:32.191Z,99.99
2016-10-16T01:52:32.181Z,99.99
2016-10-16T01:53:32.161Z,99.99
2016-10-16T01:54:32.159Z,99.99
2016-10-16T01:55:32.144Z,99.99
2016-10-16T01:56:32.127Z,99.99
2016-10-16T01:57:32.119Z,99.99
2016-10-16T01:58:32.099Z,99.99
2016-10-16T01:59:32.082Z,99.99
2016-10-16T02:00:32.054Z,99.99
2016-10-16T02:01:32.054Z,99.99
2016-10-16T02:02:32.031Z,99.99
2016-10-16T02:03:32.028Z,99.99
2016-10-16T02:04:32.008Z,99.99
2016-10-16T02:05:31.979Z,99.99
2016-10-16T02:06:31.984Z,99.99
2016-10-16T02:07:31.957Z,99.99
2016-10-16T02:08:31.947Z,99.99
2016-10-16T02:09:31.925Z,99.99
2016-10-16T02:10:31.925Z,99.99
2016-10-16T02:11:31.910Z,99.99
2016-10-16T02:12:31.896Z,99.99
2016-10-16T02:13:31.877Z,99.99
2016-10-16T02:14:31.852Z,99.99
2016-10-16T02:15:31.840Z,99.99
2016-10-16T02:16:31.820Z,99.99
2016-10-16T02:17:31.820Z,99.99
2016-10-16T02:18:31.806Z,99.99
2016-10-16T02:19:31.784Z,99.99
2016-10-16T02:20:31.777Z,99.99
2016-10-16T02:21:31.741Z,99.99
2016-10-16T02:22:31.747Z,99.99
2016-10-16T02:23:31.719Z,99.99
2016-10-16T02:24:31.703Z,99.99
2016-10-16T02:25:31.690Z,99.99
2016-10-16T02:26:31.688Z,99.99
2016-10-16T02:27:31.674Z,99.99
2016-10-16T02:28:31.639Z,99.99
2016-10-16T02:29:31.648Z,99.99
2016-10-16T02:30:31.616Z,99.99
2016-10-16T02:31:31.915Z,99.99
2016-10-16T02:32:31.594Z,99.99
2016-10-16T02:33:31.584Z,99.99
2016-10-16T02:34:31.570Z,99.99
2016-10-16T02:35:31.537Z,99.99
2016-10-16T02:36:31.526Z,99.99
2016-10-16T02:37:31.506Z,99.99
2016-10-16T02:38:31.511Z,99.99
2016-10-16T02:39:31.495Z,99.99
2016-10-16T02:40:31.477Z,99.99
2016-10-16T02:41:31.469Z,99.99
2016-10-16T02:42:31.447Z,99.99
2016-10-16T02:43:31.431Z,99.99
2016-10-16T02:44:31.402Z,99.99
2016-10-16T02:45:31.402Z,99.99
2016-10-16T02:46:31.382Z,99.99
2016-10-16T02:47:31.358Z,99.99
2016-10-16T02:48:31.365Z,99.99
2016-10-16T02:49:31.336Z,99.99
2016-10-16T02:50:31.324Z,99.99
2016-10-16T02:51:31.313Z,99.99
2016-10-16T02:52:31.287Z,99.99
2016-10-16T02:53:31.292Z,99.99
2016-10-16T02:54:31.269Z,99.99
2016-10-16T02:55:31.244Z,99.99
2016-10-16T02:56:31.232Z,99.99
2016-10-16T02:57:31.221Z,99.99
2016-10-16T02:58:31.212Z,99.99
2016-10-16T02:59:31.198Z,99.99
2016-10-16T03:00:31.185Z,99.99
2016-10-16T03:01:31.177Z,99.99
2016-10-16T03:02:31.146Z,99.99
2016-10-16T03:03:31.146Z,99.99
2016-10-16T03:04:31.113Z,99.99
2016-10-16T03:05:31.094Z,99.99
2016-10-16T03:06:31.083Z,99.99
2016-10-16T03:07:31.073Z,99.99
2016-10-16T03:08:31.061Z,99.99
2016-10-16T03:09:31.059Z,99.99
2016-10-16T03:10:31.039Z,99.99
2016-10-16T03:11:31.014Z,99.99
2016-10-16T03:12:31.002Z,99.99
2016-10-16T03:13:30.987Z,99.99
2016-10-16T03:14:30.966Z,99.99
2016-10-16T03:15:30.966Z,99.99
2016-10-16T03:16:30.957Z,99.99
2016-10-16T03:17:30.938Z,99.99
2016-10-16T03:18:30.908Z,99.99
2016-10-16T03:19:30.901Z,99.99
2016-10-16T03:20:30.878Z,99.99
2016-10-16T03:21:30.872Z,99.99
2016-10-16T03:22:30.851Z,99.99
2016-10-16T03:23:30.858Z,99.99
2016-10-16T03:24:30.844Z,99.99
2016-10-16T03:25:30.816Z,99.99
2016-10-16T03:26:30.816Z,99.99
2016-10-16T03:27:30.794Z,99.99
2016-10-16T03:28:30.774Z,99.99
2016-10-16T03:29:30.772Z,99.99
2016-10-16T03:30:30.739Z,99.99
2016-10-16T03:31:30.730Z,99.99
2016-10-16T03:32:30.722Z,99.99
2016-10-16T03:33:30.708Z,99.99
2016-10-16T03:34:30.678Z,99.99
2016-10-16T03:35:30.680Z,99.99
2016-10-16T03:36:30.657Z,99.99
2016-10-16T03:37:30.658Z,99.99
2016-10-16T03:38:30.629Z,99.99
2016-10-16T03:39:30.623Z,99.99
2016-10-16T03:40:30.609Z,99.99
2016-10-16T03:41:30.587Z,99.99
2016-10-16T03:42:30.580Z,99.99
2016-10-16T03:43:30.557Z,99.99
2016-10-16T03:44:30.560Z,99.99
2016-10-16T03:45:30.536Z,99.99
2016-10-16T03:46:30.522Z,99.99
2016-10-16T03:47:30.493Z,99.99
2016-10-16T03:48:30.595Z,99.99
2016-10-16T03:49:30.480Z,99.99
2016-10-16T03:50:30.456Z,99.99
2016-10-16T03:51:30.437Z,99.99
2016-10-16T03:52:30.441Z,99.99
2016-10-16T03:53:30.428Z,99.99
2016-10-16T03:54:30.406Z,99.99
2016-10-16T03:55:30.387Z,99.99
2016-10-16T03:56:30.385Z,99.99
2016-10-16T03:57:30.360Z,99.99
2016-10-16T03:58:30.357Z,99.99
2016-10-16T03:59:30.334Z,99.99
2016-10-16T04:00:30.328Z,99.99
2016-10-16T04:01:30.294Z,99.99
2016-10-16T04:02:30.294Z,99.99
2016-10-16T04:03:30.266Z,99.99
2016-10-16T04:04:30.271Z,99.99
2016-10-16T04:05:30.235Z,99.99
2016-10-16T04:06:30.230Z,99.99
2016-10-16T04:07:30.213Z,99.99
2016-10-16T04:08:30.206Z,99.99
2016-10-16T04:09:30.185Z,99.99
2016-10-16T04:10:30.177Z,99.99
2016-10-16T04:11:30.151Z,99.99
2016-10-16T04:12:30.163Z,99.99
2016-10-16T04:13:30.143Z,99.99
2016-10-16T04:14:30.120Z,99.99
2016-10-16T04:15:30.112Z,99.99
2016-10-16T04:16:30.085Z,99.99
2016-10-16T04:17:30.083Z,99.99
2016-10-16T04:18:30.061Z,99.99
2016-10-16T04:19:30.053Z,99.99
2016-10-16T04:20:30.019Z,99.99
2016-10-16T04:21:30.019Z,99.99
2016-10-16T04:22:29.998Z,99.99
2016-10-16T04:23:29.976Z,99.99
2016-10-16T04:24:29.983Z,99.99
2016-10-16T04:25:29.954Z,99.99
2016-10-16T04:26:29.938Z,99.99
2016-10-16T04:27:29.940Z,99.99
2016-10-16T04:28:29.911Z,99.99
2016-10-16T04:29:29.896Z,99.99
2016-10-16T04:30:29.890Z,99.99
2016-10-16T04:31:29.875Z,99.99
2016-10-16T04:32:29.848Z,99.99
2016-10-16T04:33:29.846Z,99.99
2016-10-16T04:34:29.844Z,99.99
2016-10-16T04:35:29.832Z,99.99
2016-10-16T04:36:29.794Z,99.99
2016-10-16T04:37:29.795Z,99.99
2016-10-16T04:38:29.762Z,99.99
2016-10-16T04:39:29.745Z,99.99
2016-10-16T04:40:29.737Z,99.99
2016-10-16T04:41:29.739Z,99.99
2016-10-16T04:42:29.710Z,99.99
2016-10-16T04:43:29.698Z,99.99
2016-10-16T04:44:29.688Z,99.99
2016-10-16T04:45:29.662Z,99.99
2016-10-16T04:46:29.674Z,99.99
2016-10-16T04:47:29.654Z,99.99
2016-10-16T04:48:29.638Z,99.99
2016-10-16T04:49:29.616Z,99.99
2016-10-16T04:50:29.611Z,99.99
2016-10-16T04:51:29.575Z,99.99
2016-10-16T04:52:29.564Z,99.99
2016-10-16T04:53:29.561Z,99.99
2016-10-16T04:54:29.548Z,99.99
2016-10-16T04:55:29.521Z,99.99
2016-10-16T04:56:29.512Z,99.99
2016-10-16T04:57:29.519Z,99.99
2016-10-16T04:58:29.500Z,99.99
2016-10-16T04:59:29.464Z,99.99
2016-10-16T05:00:29.450Z,99.99
2016-10-16T05:01:29.439Z,99.99
2016-10-16T05:02:29.430Z,99.99
2016-10-16T05:03:29.419Z,99.99
2016-10-16T05:04:29.418Z,99.99
2016-10-16T05:05:29.405Z,99.99
2016-10-16T05:06:29.382Z,99.99
2016-10-16T05:07:29.371Z,99.99
2016-10-16T05:08:29.366Z,99.99
2016-10-16T05:09:29.343Z,99.99
2016-10-16T05:10:29.339Z,99.99
2016-10-16T05:11:29.309Z,99.99
2016-10-16T05:12:29.291Z,99.99
2016-10-16T05:13:29.279Z,99.99
2016-10-16T05:14:29.278Z,99.99
2016-10-16T05:15:29.265Z,99.99
2016-10-16T05:16:29.548Z,99.99
2016-10-16T05:17:29.240Z,99.99
2016-10-16T05:18:29.213Z,99.99
2016-10-16T05:19:29.208Z,99.99
2016-10-16T05:20:29.201Z,99.99
2016-10-16T05:21:29.174Z,99.99
2016-10-16T05:22:29.169Z,99.99
2016-10-16T05:23:29.157Z,99.99
2016-10-16T05:24:29.143Z,99.99
2016-10-16T05:25:29.122Z,99.99
2016-10-16T05:26:29.126Z,99.99
2016-10-16T05:27:29.105Z,99.99
2016-10-16T05:28:29.107Z,99.99
2016-10-16T05:29:29.081Z,99.99
2016-10-16T05:30:29.068Z,99.99
2016-10-16T05:31:29.061Z,99.99
2016-10-16T05:32:29.054Z,99.99
2016-10-16T05:33:29.023Z,99.99
2016-10-16T05:34:29.024Z,99.99
2016-10-16T05:35:29.004Z,99.99
2016-10-16T05:36:28.987Z,99.99
2016-10-16T05:37:28.972Z,99.99
2016-10-16T05:38:28.973Z,99.99
2016-10-16T05:39:28.960Z,99.99
2016-10-16T05:40:28.950Z,99.99
2016-10-16T05:41:28.947Z,99.99
2016-10-16T05:42:28.932Z,99.99
2016-10-16T05:43:28.904Z,99.99
2016-10-16T05:44:28.921Z,99.99
2016-10-16T05:45:28.882Z,99.99
2016-10-16T05:46:28.863Z,99.99
2016-10-16T05:47:28.862Z,99.99
2016-10-16T05:48:28.848Z,99.99
2016-10-16T05:49:28.846Z,99.99
2016-10-16T05:50:28.819Z,99.99
2016-10-16T05:51:28.818Z,99.99
2016-10-16T05:52:28.809Z,99.99
2016-10-16T05:53:28.782Z,99.99
2016-10-16T05:54:28.770Z,99.99
2016-10-16T05:55:28.760Z,99.99
2016-10-16T05:56:28.761Z,99.99
2016-10-16T05:57:28.727Z,99.99
2016-10-16T05:58:28.718Z,99.99
2016-10-16T05:59:28.712Z,99.99
2016-10-16T06:00:28.715Z,99.99
2016-10-16T06:01:28.695Z,99.99
2016-10-16T06:02:28.684Z,99.99
2016-10-16T06:03:28.676Z,99.99
2016-10-16T06:04:28.647Z,99.99
2016-10-16T06:05:28.657Z,99.99
2016-10-16T06:06:28.949Z,99.99
2016-10-16T06:07:28.633Z,99.99
2016-10-16T06:08:28.621Z,99.99
2016-10-16T06:09:28.590Z,99.99
2016-10-16T06:10:28.593Z,99.99
2016-10-16T06:11:28.583Z,99.99
2016-10-16T06:12:28.558Z,99.99
2016-10-16T06:13:28.551Z,99.99
2016-10-16T06:14:28.554Z,99.99
2016-10-16T06:15:28.538Z,99.99
2016-10-16T06:16:28.526Z,99.99
2016-10-16T06:17:28.514Z,99.99
2016-10-16T06:18:28.495Z,99.99
2016-10-16T06:19:28.491Z,99.99
2016-10-16T06:20:28.474Z,99.99
2016-10-16T06:21:28.462Z,99.99
2016-10-16T06:22:28.467Z,99.99
2016-10-16T06:23:28.456Z,99.99
2016-10-16T06:24:28.429Z,99.99
2016-10-16T06:25:28.416Z,99.99
2016-10-16T06:26:28.423Z,99.99
2016-10-16T06:27:28.415Z,99.99
2016-10-16T06:28:28.384Z,99.99
2016-10-16T06:29:28.402Z,99.99
2016-10-16T06:30:28.364Z,99.99
2016-10-16T06:31:28.362Z,99.99
2016-10-16T06:32:28.358Z,99.99
2016-10-16T06:33:28.356Z,99.99
2016-10-16T06:34:28.329Z,99.99
2016-10-16T06:35:28.338Z,99.99
2016-10-16T06:36:28.330Z,99.99
2016-10-16T06:37:28.305Z,99.99
2016-10-16T06:38:28.302Z,99.99
2016-10-16T06:39:28.281Z,99.99
2016-10-16T06:40:28.273Z,99.99
2016-10-16T06:41:28.270Z,99.99
2016-10-16T06:42:28.261Z,99.99
2016-10-16T06:43:28.259Z,99.99
2016-10-16T06:44:28.269Z,99.99
2016-10-16T06:45:28.249Z,99.99
2016-10-16T06:46:28.236Z,99.99
2016-10-16T06:47:28.227Z,99.99
2016-10-16T06:48:28.217Z,99.99
2016-10-16T06:49:28.216Z,99.89
2016-10-16T06:50:28.197Z,99.79
2016-10-16T06:51:28.185Z,99.89
2016-10-16T06:52:28.185Z,99.6
2016-10-16T06:53:28.164Z,99.22
2016-10-16T06:54:28.158Z,99.37
2016-10-16T06:55:28.152Z,98.84
2016-10-16T06:56:28.143Z,98.84
2016-10-16T06:57:28.136Z,98.7
2016-10-16T06:58:28.130Z,98.55
2016-10-16T06:59:28.132Z,98.32
2016-10-16T07:00:28.128Z,98.03
2016-10-16T07:01:28.125Z,97.84
2016-10-16T07:02:28.112Z,98.13
2016-10-16T07:03:28.108Z,97.46
2016-10-16T07:04:28.100Z,97.46
2016-10-16T07:05:28.081Z,97.41
2016-10-16T07:06:28.067Z,97.03
2016-10-16T07:07:28.066Z,97.13
2016-10-16T07:08:28.073Z,96.6
2016-10-16T07:09:28.064Z,96.46
2016-10-16T07:10:28.044Z,95.89
2016-10-16T07:11:28.052Z,96.36
2016-10-16T07:12:28.029Z,96.27
2016-10-16T07:13:28.037Z,95.37
2016-10-16T07:14:28.023Z,95.51
2016-10-16T07:15:28.015Z,95.7
2016-10-16T07:16:28.008Z,94.93
2016-10-16T07:17:28.008Z,94.51
2016-10-16T07:18:27.994Z,94.74
2016-10-16T07:19:27.986Z,94.13
2016-10-16T07:20:27.969Z,94.17
2016-10-16T07:21:27.971Z,93.46
2016-10-16T07:22:27.960Z,93.51
2016-10-16T07:23:27.957Z,93.65
2016-10-16T07:24:27.937Z,92.7
2016-10-16T07:25:27.948Z,92.94
2016-10-16T07:26:27.928Z,92.56
2016-10-16T07:27:27.920Z,92.46
2016-10-16T07:28:27.915Z,92.89
2016-10-16T07:29:27.900Z,92.89
2016-10-16T07:30:27.900Z,92.8
2016-10-16T07:31:27.881Z,92.41
2016-10-16T07:32:27.867Z,92.18
2016-10-16T07:33:27.865Z,92.08
2016-10-16T07:34:27.852Z,92.08
2016-10-16T07:35:27.853Z,92.13
2016-10-16T07:36:27.836Z,91.85
2016-10-16T07:37:27.848Z,91.89
2016-10-16T07:38:27.821Z,91.32
2016-10-16T07:39:27.810Z,91.18
2016-10-16T07:40:27.815Z,91.51
2016-10-16T07:41:27.790Z,91.03
2016-10-16T07:42:27.777Z,90.84
2016-10-16T07:43:27.787Z,90.89
2016-10-16T07:44:27.779Z,90.33
2016-10-16T07:45:27.770Z,90.47
2016-10-16T07:46:27.761Z,90.28
2016-10-16T07:47:27.738Z,90.47
2016-10-16T07:48:27.735Z,90.04
2016-10-16T07:49:27.733Z,90.04
2016-10-16T07:50:27.701Z,89.75
2016-10-16T07:51:27.707Z,89.28
2016-10-16T07:52:27.684Z,89.56
2016-10-16T07:53:27.698Z,89.09
2016-10-16T07:54:27.664Z,88.9
2016-10-16T07:55:27.669Z,88.8
2016-10-16T07:56:27.654Z,88.76
2016-10-16T07:57:27.658Z,88.33
2016-10-16T07:58:27.648Z,88.52
2016-10-16T07:59:27.618Z,88.42
2016-10-16T08:00:27.622Z,87.76
2016-10-16T08:01:27.615Z,88.13
2016-10-16T08:02:27.602Z,88.09
2016-10-16T08:03:27.594Z,87.62
2016-10-16T08:04:27.579Z,87.71
2016-10-16T08:05:27.578Z,88
2016-10-16T08:06:27.572Z,87.52
2016-10-16T08:07:27.543Z,87.24
2016-10-16T08:08:27.541Z,87.38
2016-10-16T08:09:27.547Z,87.09
2016-10-16T08:10:27.514Z,86.61
2016-10-16T08:11:27.504Z,86.9
2016-10-16T08:12:27.509Z,86.43
2016-10-16T08:13:27.497Z,86.71
2016-10-16T08:14:27.493Z,86.61
2016-10-16T08:15:27.468Z,86.52
2016-10-16T08:16:27.458Z,86.43
2016-10-16T08:17:27.464Z,86.52
2016-10-16T08:18:27.447Z,85.99
2016-10-16T08:19:27.437Z,86.05
2016-10-16T08:20:27.421Z,85.38
2016-10-16T08:21:27.432Z,86.05
2016-10-16T08:22:27.425Z,85.66
2016-10-16T08:23:27.415Z,85.28
2016-10-16T08:24:27.403Z,85.38
2016-10-16T08:25:27.398Z,85.57
2016-10-16T08:26:27.365Z,85.19
2016-10-16T08:27:27.362Z,84.81
2016-10-16T08:28:27.367Z,84.81
2016-10-16T08:29:27.351Z,84.91
2016-10-16T08:30:27.331Z,84.72
2016-10-16T08:31:27.339Z,84.62
2016-10-16T08:32:27.329Z,84.47
2016-10-16T08:33:27.318Z,84.62
2016-10-16T08:34:27.329Z,84.38
2016-10-16T08:35:27.292Z,84.05
2016-10-16T08:36:27.301Z,83.67
2016-10-16T08:37:27.262Z,84.09
2016-10-16T08:38:27.252Z,83.42
2016-10-16T08:39:27.257Z,83.39
2016-10-16T08:40:27.240Z,83.58
2016-10-16T08:41:27.232Z,83.42
2016-10-16T08:42:27.234Z,83.29
2016-10-16T08:43:27.226Z,83.1
2016-10-16T08:44:27.196Z,83.1
2016-10-16T08:45:27.201Z,83.42
2016-10-16T08:46:27.185Z,82.15
2016-10-16T08:47:27.175Z,82.38
2016-10-16T08:48:27.167Z,82.57
2016-10-16T08:49:27.148Z,82.48
2016-10-16T08:50:27.162Z,82.28
2016-10-16T08:51:27.147Z,82.09
2016-10-16T08:52:27.137Z,81.77
2016-10-16T08:53:27.134Z,81.86
2016-10-16T08:54:27.111Z,81.77
2016-10-16T08:55:27.102Z,82.15
2016-10-16T08:56:27.111Z,81.96
2016-10-16T08:57:27.084Z,81.48
2016-10-16T08:58:27.067Z,81.48
2016-10-16T08:59:27.060Z,81.29
2016-10-16T09:00:27.073Z,81.1
2016-10-16T09:01:27.053Z,81.29
2016-10-16T09:02:27.044Z,81.1
2016-10-16T09:03:27.039Z,81.06
2016-10-16T09:04:27.017Z,80.87
2016-10-16T09:05:27.001Z,80.82
2016-10-16T09:06:26.992Z,80.63
2016-10-16T09:07:26.984Z,80.44
2016-10-16T09:08:26.980Z,80.34
2016-10-16T09:09:26.977Z,80.34
2016-10-16T09:10:27.075Z,80.34
2016-10-16T09:11:26.965Z,80.05
2016-10-16T09:12:26.943Z,79.96
2016-10-16T09:13:26.932Z,79.96
2016-10-16T09:14:26.932Z,79.86
2016-10-16T09:15:26.920Z,79.62
2016-10-16T09:16:26.903Z,79.49
2016-10-16T09:17:26.903Z,79.81
2016-10-16T09:18:26.897Z,79.14
2016-10-16T09:19:26.870Z,79.33
2016-10-16T09:20:26.867Z,79.24
2016-10-16T09:21:26.870Z,79.05
2016-10-16T09:22:26.840Z,79.05
2016-10-16T09:23:26.844Z,78.96
2016-10-16T09:24:26.828Z,78.29
2016-10-16T09:25:26.815Z,78.48
2016-10-16T09:26:26.825Z,78.96
2016-10-16T09:27:26.815Z,78.38
2016-10-16T09:28:26.785Z,78.38
2016-10-16T09:29:26.788Z,78.38
2016-10-16T09:30:26.772Z,78.38
2016-10-16T09:31:26.772Z,78.1
2016-10-16T09:32:26.746Z,77.81
2016-10-16T09:33:26.751Z,78.19
2016-10-16T09:34:26.742Z,77.72
2016-10-16T09:35:26.722Z,77.95
2016-10-16T09:36:26.721Z,77.53
2016-10-16T09:37:26.722Z,77.72
2016-10-16T09:38:26.692Z,76.96
2016-10-16T09:39:26.699Z,77.15
2016-10-16T09:40:26.690Z,77
2016-10-16T09:41:26.686Z,76.96
2016-10-16T09:42:26.665Z,76.76
2016-10-16T09:43:26.664Z,77.15
2016-10-16T09:44:27.019Z,76.96
2016-10-16T09:45:26.640Z,76.57
2016-10-16T09:46:26.622Z,76.86
2016-10-16T09:47:26.627Z,76.52
2016-10-16T09:48:26.619Z,76.33
2016-10-16T09:49:26.616Z,76.52
2016-10-16T09:50:26.609Z,76.67
2016-10-16T09:51:26.588Z,76.71
2016-10-16T09:52:26.578Z,76.14
2016-10-16T09:53:26.564Z,76.23
2016-10-16T09:54:26.565Z,75.95
2016-10-16T09:55:26.565Z,76.04
2016-10-16T09:56:26.551Z,76.29
2016-10-16T09:57:26.527Z,75.67
2016-10-16T09:58:26.517Z,75.81
2016-10-16T09:59:26.522Z,75.62
2016-10-16T10:00:26.507Z,75.43
2016-10-16T10:01:26.511Z,75.62
2016-10-16T10:02:26.483Z,75.24
2016-10-16T10:03:26.487Z,75.34
2016-10-16T10:04:26.479Z,74.96
2016-10-16T10:05:26.489Z,75.34
2016-10-16T10:06:26.455Z,74.87
2016-10-16T10:07:26.459Z,74.87
2016-10-16T10:08:26.436Z,74.96
2016-10-16T10:09:26.433Z,75.24
2016-10-16T10:10:26.423Z,74.77
2016-10-16T10:11:26.416Z,74.29
2016-10-16T10:12:26.394Z,74.63
2016-10-16T10:13:26.391Z,74.58
2016-10-16T10:14:26.388Z,74.54
2016-10-16T10:15:26.378Z,74.58
2016-10-16T10:16:26.362Z,74.58
2016-10-16T10:17:26.361Z,74.1
2016-10-16T10:18:26.363Z,74.2
2016-10-16T10:19:26.343Z,74.1
2016-10-16T10:20:26.349Z,73.91
2016-10-16T10:21:26.310Z,73.63
2016-10-16T10:22:26.322Z,73.72
2016-10-16T10:23:26.312Z,73.63
2016-10-16T10:24:26.614Z,73.76
2016-10-16T10:25:26.288Z,73.95
2016-10-16T10:26:26.271Z,73.66
2016-10-16T10:27:26.275Z,73.28
2016-10-16T10:28:26.245Z,73.28
2016-10-16T10:29:26.251Z,73.19
2016-10-16T10:30:26.249Z,73.66
2016-10-16T10:31:26.231Z,72.96
2016-10-16T10:32:26.231Z,73.06
2016-10-16T10:33:26.200Z,73.19
2016-10-16T10:34:26.210Z,72.81
2016-10-16T10:35:26.205Z,72.71
2016-10-16T10:36:26.176Z,72.9
2016-10-16T10:37:26.169Z,73
2016-10-16T10:38:26.178Z,72.62
2016-10-16T10:39:26.164Z,72.42
2016-10-16T10:40:26.150Z,72.58
2016-10-16T10:41:26.153Z,72.62
2016-10-16T10:42:26.136Z,72.62
2016-10-16T10:43:26.123Z,72.75
2016-10-16T10:44:26.106Z,72.65
2016-10-16T10:45:26.099Z,72.56
2016-10-16T10:46:26.097Z,72.46
2016-10-16T10:47:26.096Z,72.17
2016-10-16T10:48:26.087Z,72.37
2016-10-16T10:49:26.084Z,72.27
2016-10-16T10:50:26.077Z,71.89
2016-10-16T10:51:26.063Z,71.89
2016-10-16T10:52:26.062Z,72.17
2016-10-16T10:53:26.051Z,72.08
2016-10-16T10:54:26.045Z,72.14
2016-10-16T10:55:26.035Z,71.76
2016-10-16T10:56:26.016Z,71.76
2016-10-16T10:57:26.013Z,71.76
2016-10-16T10:58:26.011Z,71.19
2016-10-16T10:59:25.984Z,71.09
2016-10-16T11:00:25.979Z,71.28
2016-10-16T11:01:25.965Z,71.57
2016-10-16T11:02:25.979Z,71.51
2016-10-16T11:03:25.964Z,71.32
2016-10-16T11:04:25.954Z,70.94
2016-10-16T11:05:25.954Z,70.94
2016-10-16T11:06:25.939Z,70.94
2016-10-16T11:07:25.937Z,71.07
2016-10-16T11:08:25.931Z,70.97
2016-10-16T11:09:25.920Z,70.69
2016-10-16T11:10:25.907Z,71.17
2016-10-16T11:11:25.892Z,70.84
2016-10-16T11:12:25.892Z,70.94
2016-10-16T11:13:25.892Z,70.59
2016-10-16T11:14:25.869Z,70.75
2016-10-16T11:15:25.861Z,70.78
2016-10-16T11:16:25.867Z,70.4
2016-10-16T11:17:25.861Z,70.37
2016-10-16T11:18:25.830Z,70.59
2016-10-16T11:19:25.846Z,70.47
2016-10-16T11:20:25.838Z,70.18
2016-10-16T11:21:25.818Z,69.99
2016-10-16T11:22:25.800Z,70.18
2016-10-16T11:23:25.801Z,70.27
2016-10-16T11:24:25.785Z,69.99
2016-10-16T11:25:25.798Z,69.99
2016-10-16T11:26:25.769Z,69.6
2016-10-16T11:27:25.783Z,69.7
2016-10-16T11:28:25.767Z,69.64
2016-10-16T11:29:25.745Z,69.54
2016-10-16T11:30:25.738Z,69.35
2016-10-16T11:31:25.732Z,69.45
2016-10-16T11:32:25.724Z,69.74
2016-10-16T11:33:25.722Z,69.54
2016-10-16T11:34:25.714Z,69.48
2016-10-16T11:35:25.713Z,69.48
2016-10-16T11:36:25.692Z,69.48
2016-10-16T11:37:25.701Z,69.33
2016-10-16T11:38:25.699Z,69.27
2016-10-16T11:39:25.684Z,68.79
2016-10-16T11:40:25.677Z,68.85
2016-10-16T11:41:25.677Z,68.82
2016-10-16T11:42:25.649Z,68.57
2016-10-16T11:43:25.667Z,68.63
2016-10-16T11:44:25.657Z,68.91
2016-10-16T11:45:25.643Z,68.72
2016-10-16T11:46:25.629Z,68.5
2016-10-16T11:47:25.622Z,68.88
2016-10-16T11:48:25.607Z,68.57
2016-10-16T11:49:25.608Z,68.44
2016-10-16T11:50:25.608Z,68.28
2016-10-16T11:51:25.601Z,68.28
2016-10-16T11:52:25.594Z,68.28
2016-10-16T11:53:25.595Z,68.41
2016-10-16T11:54:25.588Z,68.54
2016-10-16T11:55:25.582Z,68.35
2016-10-16T11:56:25.552Z,68.54
2016-10-16T11:57:25.563Z,68.1
2016-10-16T11:58:25.543Z,67.65
2016-10-16T11:59:25.555Z,67.74
2016-10-16T12:00:25.537Z,67.8
2016-10-16T12:01:25.529Z,67.58
2016-10-16T12:02:25.515Z,67.39
2016-10-16T12:03:25.523Z,67.58
2016-10-16T12:04:25.516Z,67.71
2016-10-16T12:05:25.518Z,67.55
2016-10-16T12:06:25.511Z,67.77
2016-10-16T12:07:25.491Z,67.75
2016-10-16T12:08:25.479Z,67.97
2016-10-16T12:09:25.481Z,67.82
2016-10-16T12:10:25.480Z,67.76
2016-10-16T12:11:25.475Z,67.47
2016-10-16T12:12:25.477Z,67.37
2016-10-16T12:13:25.453Z,66.96
2016-10-16T12:14:25.467Z,67.36
2016-10-16T12:15:25.461Z,67.3
2016-10-16T12:16:25.458Z,67.11
2016-10-16T12:17:25.433Z,66.73
2016-10-16T12:18:25.435Z,66.83
2016-10-16T12:19:25.421Z,67.11
2016-10-16T12:20:25.425Z,67.02
2016-10-16T12:21:25.414Z,67.05
2016-10-16T12:22:25.429Z,66.61
2016-10-16T12:23:25.412Z,66.61
2016-10-16T12:24:25.418Z,66.47
2016-10-16T12:25:25.414Z,66.67
2016-10-16T12:26:25.387Z,66.67
2016-10-16T12:27:25.399Z,66.28
2016-10-16T12:28:25.401Z,66.15
2016-10-16T12:29:25.374Z,66.35
2016-10-16T12:30:25.370Z,66.53
2016-10-16T12:31:25.374Z,66.38
2016-10-16T12:32:25.367Z,66.47
2016-10-16T12:33:25.356Z,66.06
2016-10-16T12:34:25.357Z,66.12
2016-10-16T12:35:25.346Z,66.02
2016-10-16T12:36:25.348Z,65.74
2016-10-16T12:37:25.341Z,65.7
2016-10-16T12:38:25.345Z,65.8
2016-10-16T12:39:25.339Z,65.8
2016-10-16T12:40:25.332Z,65.8
2016-10-16T12:41:25.322Z,65.83
2016-10-16T12:42:25.327Z,66.12
2016-10-16T12:43:25.301Z,65.74
2016-10-16T12:44:25.317Z,65.64
2016-10-16T12:45:25.290Z,65.61
2016-10-16T12:46:25.297Z,65.7
2016-10-16T12:47:25.277Z,65.7
2016-10-16T12:48:25.294Z,65.64
2016-10-16T12:49:25.286Z,65.74
2016-10-16T12:50:25.259Z,65.23
2016-10-16T12:51:25.275Z,65.42
2016-10-16T12:52:25.269Z,65.23
2016-10-16T12:53:25.255Z,65.29